sensor_id;sensor_type;location;lat;lon;timestamp;P1;durP1;ratioP1;P2;durP2;ratioP2
71383;SDS011;67558;52.166;5.004;2023-05-07T00:01:37;26.65;;;23.58;;
71383;SDS011;67558;52.166;5.004;2023-05-07T00:04:03;24.05;;;21.55;;
71383;SDS011;67558;52.166;5.004;2023-05-07T00:06:28;28.58;;;23.20;;
71383;SDS011;67558;52.166;5.004;2023-05-07T00:08:55;25.67;;;22.60;;
71383;SDS011;67558;52.166;5.004;2023-05-07T00:11:21;36.42;;;33.20;;
71383;SDS011;67558;52.166;5.004;2023-05-07T00:13:47;26.48;;;23.77;;
71383;SDS011;67558;52.166;5.004;2023-05-07T00:16:13;25.77;;;22.55;;
71383;SDS011;67558;52.166;5.004;2023-05-07T00:18:38;26.65;;;24.02;;
71383;SDS011;67558;52.166;5.004;2023-05-07T00:21:04;24.63;;;22.00;;
71383;SDS011;67558;52.166;5.004;2023-05-07T00:23:29;26.23;;;23.73;;
71383;SDS011;67558;52.166;5.004;2023-05-07T00:25:55;25.27;;;22.60;;
71383;SDS011;67558;52.166;5.004;2023-05-07T00:28:21;27.02;;;22.02;;
71383;SDS011;67558;52.166;5.004;2023-05-07T00:30:46;23.92;;;21.33;;
71383;SDS011;67558;52.166;5.004;2023-05-07T00:33:11;26.90;;;24.08;;
71383;SDS011;67558;52.166;5.004;2023-05-07T00:35:37;30.13;;;23.42;;
71383;SDS011;67558;52.166;5.004;2023-05-07T00:38:02;25.17;;;22.60;;
71383;SDS011;67558;52.166;5.004;2023-05-07T00:40:28;23.33;;;21.02;;
71383;SDS011;67558;52.166;5.004;2023-05-07T00:42:54;23.20;;;20.88;;
71383;SDS011;67558;52.166;5.004;2023-05-07T00:45:21;24.67;;;21.30;;
71383;SDS011;67558;52.166;5.004;2023-05-07T00:47:50;25.45;;;23.00;;
71383;SDS011;67558;52.166;5.004;2023-05-07T00:50:15;22.77;;;20.05;;
71383;SDS011;67558;52.166;5.004;2023-05-07T00:52:42;21.80;;;19.42;;
71383;SDS011;67558;52.166;5.004;2023-05-07T00:55:07;24.48;;;22.02;;
71383;SDS011;67558;52.166;5.004;2023-05-07T00:57:35;25.83;;;23.55;;
71383;SDS011;67558;52.166;5.004;2023-05-07T01:00:03;25.67;;;22.77;;
71383;SDS011;67558;52.166;5.004;2023-05-07T01:02:29;21.77;;;19.55;;
71383;SDS011;67558;52.166;5.004;2023-05-07T01:04:55;22.13;;;19.92;;
71383;SDS011;67558;52.166;5.004;2023-05-07T01:07:20;24.40;;;22.13;;
71383;SDS011;67558;52.166;5.004;2023-05-07T01:09:47;20.80;;;18.60;;
71383;SDS011;67558;52.166;5.004;2023-05-07T01:12:13;30.52;;;28.33;;
71383;SDS011;67558;52.166;5.004;2023-05-07T01:14:38;21.65;;;19.73;;
71383;SDS011;67558;52.166;5.004;2023-05-07T01:17:04;20.52;;;18.38;;
71383;SDS011;67558;52.166;5.004;2023-05-07T01:19:29;21.42;;;19.23;;
71383;SDS011;67558;52.166;5.004;2023-05-07T01:21:56;20.20;;;18.38;;
71383;SDS011;67558;52.166;5.004;2023-05-07T01:24:28;19.55;;;17.55;;
71383;SDS011;67558;52.166;5.004;2023-05-07T01:26:55;19.58;;;17.98;;
71383;SDS011;67558;52.166;5.004;2023-05-07T01:29:20;21.02;;;19.05;;
71383;SDS011;67558;52.166;5.004;2023-05-07T01:31:46;19.25;;;17.63;;
71383;SDS011;67558;52.166;5.004;2023-05-07T01:34:13;20.58;;;18.85;;
71383;SDS011;67558;52.166;5.004;2023-05-07T01:36:42;19.98;;;18.23;;
71383;SDS011;67558;52.166;5.004;2023-05-07T01:39:08;20.88;;;19.38;;
71383;SDS011;67558;52.166;5.004;2023-05-07T01:41:34;29.05;;;27.35;;
71383;SDS011;67558;52.166;5.004;2023-05-07T01:44:00;16.95;;;15.63;;
71383;SDS011;67558;52.166;5.004;2023-05-07T01:46:27;18.33;;;16.90;;
71383;SDS011;67558;52.166;5.004;2023-05-07T01:48:54;17.42;;;16.17;;
71383;SDS011;67558;52.166;5.004;2023-05-07T01:51:20;17.00;;;15.77;;
71383;SDS011;67558;52.166;5.004;2023-05-07T01:53:47;17.02;;;15.63;;
71383;SDS011;67558;52.166;5.004;2023-05-07T01:56:16;18.30;;;17.10;;
71383;SDS011;67558;52.166;5.004;2023-05-07T01:58:43;17.52;;;16.13;;
71383;SDS011;67558;52.166;5.004;2023-05-07T02:01:10;19.88;;;18.33;;
71383;SDS011;67558;52.166;5.004;2023-05-07T02:03:36;16.83;;;15.48;;
71383;SDS011;67558;52.166;5.004;2023-05-07T02:06:01;14.80;;;13.70;;
71383;SDS011;67558;52.166;5.004;2023-05-07T02:08:27;16.63;;;15.52;;
71383;SDS011;67558;52.166;5.004;2023-05-07T02:10:52;18.02;;;16.73;;
71383;SDS011;67558;52.166;5.004;2023-05-07T02:13:18;16.25;;;15.02;;
71383;SDS011;67558;52.166;5.004;2023-05-07T02:15:44;16.88;;;15.45;;
71383;SDS011;67558;52.166;5.004;2023-05-07T02:18:14;26.27;;;24.73;;
71383;SDS011;67558;52.166;5.004;2023-05-07T02:20:40;18.88;;;17.27;;
71383;SDS011;67558;52.166;5.004;2023-05-07T02:23:05;15.95;;;14.70;;
71383;SDS011;67558;52.166;5.004;2023-05-07T02:25:31;16.73;;;15.30;;
71383;SDS011;67558;52.166;5.004;2023-05-07T02:27:56;19.38;;;17.95;;
71383;SDS011;67558;52.166;5.004;2023-05-07T02:30:21;16.08;;;14.85;;
71383;SDS011;67558;52.166;5.004;2023-05-07T02:32:47;17.13;;;15.68;;
71383;SDS011;67558;52.166;5.004;2023-05-07T02:35:12;16.75;;;15.55;;
71383;SDS011;67558;52.166;5.004;2023-05-07T02:37:37;17.10;;;15.80;;
71383;SDS011;67558;52.166;5.004;2023-05-07T02:40:03;17.65;;;16.25;;
71383;SDS011;67558;52.166;5.004;2023-05-07T02:42:29;17.75;;;16.35;;
71383;SDS011;67558;52.166;5.004;2023-05-07T02:44:54;17.05;;;15.75;;
71383;SDS011;67558;52.166;5.004;2023-05-07T02:47:20;14.77;;;13.68;;
71383;SDS011;67558;52.166;5.004;2023-05-07T02:49:45;15.88;;;14.48;;
71383;SDS011;67558;52.166;5.004;2023-05-07T02:52:10;15.60;;;14.38;;
71383;SDS011;67558;52.166;5.004;2023-05-07T02:54:36;15.90;;;14.80;;
71383;SDS011;67558;52.166;5.004;2023-05-07T02:57:01;17.83;;;16.33;;
71383;SDS011;67558;52.166;5.004;2023-05-07T02:59:27;16.50;;;15.40;;
71383;SDS011;67558;52.166;5.004;2023-05-07T03:01:52;16.65;;;15.55;;
71383;SDS011;67558;52.166;5.004;2023-05-07T03:04:17;17.67;;;16.58;;
71383;SDS011;67558;52.166;5.004;2023-05-07T03:06:43;26.27;;;24.75;;
71383;SDS011;67558;52.166;5.004;2023-05-07T03:09:08;17.85;;;16.45;;
71383;SDS011;67558;52.166;5.004;2023-05-07T03:11:34;18.05;;;16.52;;
71383;SDS011;67558;52.166;5.004;2023-05-07T03:14:00;15.80;;;14.77;;
71383;SDS011;67558;52.166;5.004;2023-05-07T03:16:26;18.27;;;16.63;;
71383;SDS011;67558;52.166;5.004;2023-05-07T03:18:51;17.88;;;16.48;;
71383;SDS011;67558;52.166;5.004;2023-05-07T03:21:17;16.80;;;15.50;;
71383;SDS011;67558;52.166;5.004;2023-05-07T03:23:43;15.82;;;14.52;;
71383;SDS011;67558;52.166;5.004;2023-05-07T03:26:08;26.92;;;25.45;;
71383;SDS011;67558;52.166;5.004;2023-05-07T03:28:33;17.05;;;15.82;;
71383;SDS011;67558;52.166;5.004;2023-05-07T03:30:59;16.27;;;14.98;;
71383;SDS011;67558;52.166;5.004;2023-05-07T03:33:25;16.20;;;15.02;;
71383;SDS011;67558;52.166;5.004;2023-05-07T03:35:52;16.05;;;14.73;;
71383;SDS011;67558;52.166;5.004;2023-05-07T03:38:17;18.70;;;17.25;;
71383;SDS011;67558;52.166;5.004;2023-05-07T03:40:43;16.67;;;15.30;;
71383;SDS011;67558;52.166;5.004;2023-05-07T03:43:08;24.98;;;23.17;;
71383;SDS011;67558;52.166;5.004;2023-05-07T03:45:34;16.33;;;15.00;;
71383;SDS011;67558;52.166;5.004;2023-05-07T03:47:59;19.58;;;18.15;;
71383;SDS011;67558;52.166;5.004;2023-05-07T03:50:24;16.90;;;15.43;;
71383;SDS011;67558;52.166;5.004;2023-05-07T03:52:50;17.65;;;16.25;;
71383;SDS011;67558;52.166;5.004;2023-05-07T03:55:15;16.77;;;15.50;;
71383;SDS011;67558;52.166;5.004;2023-05-07T03:57:40;17.88;;;16.25;;
71383;SDS011;67558;52.166;5.004;2023-05-07T04:00:06;16.15;;;14.75;;
71383;SDS011;67558;52.166;5.004;2023-05-07T04:02:32;17.15;;;15.70;;
71383;SDS011;67558;52.166;5.004;2023-05-07T04:04:58;18.48;;;17.10;;
71383;SDS011;67558;52.166;5.004;2023-05-07T04:07:23;17.60;;;16.30;;
71383;SDS011;67558;52.166;5.004;2023-05-07T04:09:48;17.45;;;15.90;;
71383;SDS011;67558;52.166;5.004;2023-05-07T04:12:14;18.63;;;17.02;;
71383;SDS011;67558;52.166;5.004;2023-05-07T04:14:40;17.13;;;15.73;;
71383;SDS011;67558;52.166;5.004;2023-05-07T04:17:05;17.20;;;15.73;;
71383;SDS011;67558;52.166;5.004;2023-05-07T04:19:33;19.58;;;17.90;;
71383;SDS011;67558;52.166;5.004;2023-05-07T04:21:58;19.13;;;17.50;;
71383;SDS011;67558;52.166;5.004;2023-05-07T04:24:24;17.05;;;15.52;;
71383;SDS011;67558;52.166;5.004;2023-05-07T04:26:49;18.02;;;16.42;;
71383;SDS011;67558;52.166;5.004;2023-05-07T04:29:16;18.65;;;16.98;;
71383;SDS011;67558;52.166;5.004;2023-05-07T04:31:41;17.83;;;16.25;;
71383;SDS011;67558;52.166;5.004;2023-05-07T04:34:09;28.90;;;26.95;;
71383;SDS011;67558;52.166;5.004;2023-05-07T04:36:36;18.80;;;17.17;;
71383;SDS011;67558;52.166;5.004;2023-05-07T04:39:03;19.98;;;18.08;;
71383;SDS011;67558;52.166;5.004;2023-05-07T04:41:28;17.30;;;15.80;;
71383;SDS011;67558;52.166;5.004;2023-05-07T04:43:54;20.08;;;18.17;;
71383;SDS011;67558;52.166;5.004;2023-05-07T04:46:19;18.73;;;17.08;;
71383;SDS011;67558;52.166;5.004;2023-05-07T04:48:45;15.93;;;14.52;;
71383;SDS011;67558;52.166;5.004;2023-05-07T04:51:10;18.80;;;17.00;;
71383;SDS011;67558;52.166;5.004;2023-05-07T04:53:36;18.75;;;17.15;;
71383;SDS011;67558;52.166;5.004;2023-05-07T04:56:02;20.45;;;18.75;;
71383;SDS011;67558;52.166;5.004;2023-05-07T04:58:27;21.70;;;19.70;;
71383;SDS011;67558;52.166;5.004;2023-05-07T05:00:56;19.15;;;17.30;;
71383;SDS011;67558;52.166;5.004;2023-05-07T05:03:22;18.95;;;16.95;;
71383;SDS011;67558;52.166;5.004;2023-05-07T05:05:48;21.63;;;19.40;;
71383;SDS011;67558;52.166;5.004;2023-05-07T05:08:14;20.98;;;19.20;;
71383;SDS011;67558;52.166;5.004;2023-05-07T05:10:40;21.50;;;19.70;;
71383;SDS011;67558;52.166;5.004;2023-05-07T05:13:06;21.08;;;19.17;;
71383;SDS011;67558;52.166;5.004;2023-05-07T05:15:32;21.90;;;20.05;;
71383;SDS011;67558;52.166;5.004;2023-05-07T05:17:58;23.38;;;21.27;;
71383;SDS011;67558;52.166;5.004;2023-05-07T05:20:23;19.55;;;17.63;;
71383;SDS011;67558;52.166;5.004;2023-05-07T05:22:49;20.27;;;18.20;;
71383;SDS011;67558;52.166;5.004;2023-05-07T05:25:14;20.42;;;18.67;;
71383;SDS011;67558;52.166;5.004;2023-05-07T05:27:40;19.85;;;18.05;;
71383;SDS011;67558;52.166;5.004;2023-05-07T05:30:05;22.00;;;20.20;;
71383;SDS011;67558;52.166;5.004;2023-05-07T05:32:31;21.52;;;19.38;;
71383;SDS011;67558;52.166;5.004;2023-05-07T05:34:56;20.95;;;19.02;;
71383;SDS011;67558;52.166;5.004;2023-05-07T05:37:22;22.52;;;20.42;;
71383;SDS011;67558;52.166;5.004;2023-05-07T05:39:47;20.27;;;18.58;;
71383;SDS011;67558;52.166;5.004;2023-05-07T05:42:13;23.13;;;21.13;;
71383;SDS011;67558;52.166;5.004;2023-05-07T05:44:38;22.85;;;20.73;;
71383;SDS011;67558;52.166;5.004;2023-05-07T05:47:03;20.42;;;18.63;;
71383;SDS011;67558;52.166;5.004;2023-05-07T05:49:29;22.13;;;20.15;;
71383;SDS011;67558;52.166;5.004;2023-05-07T05:51:54;21.77;;;19.95;;
71383;SDS011;67558;52.166;5.004;2023-05-07T05:54:20;20.40;;;18.52;;
71383;SDS011;67558;52.166;5.004;2023-05-07T05:56:46;21.10;;;19.20;;
71383;SDS011;67558;52.166;5.004;2023-05-07T05:59:11;21.00;;;19.00;;
71383;SDS011;67558;52.166;5.004;2023-05-07T06:01:37;19.98;;;17.98;;
71383;SDS011;67558;52.166;5.004;2023-05-07T06:04:02;24.70;;;22.60;;
71383;SDS011;67558;52.166;5.004;2023-05-07T06:06:28;22.23;;;20.23;;
71383;SDS011;67558;52.166;5.004;2023-05-07T06:08:54;19.77;;;17.77;;
71383;SDS011;67558;52.166;5.004;2023-05-07T06:11:19;25.95;;;23.65;;
71383;SDS011;67558;52.166;5.004;2023-05-07T06:13:45;21.25;;;19.35;;
71383;SDS011;67558;52.166;5.004;2023-05-07T06:16:10;21.30;;;19.33;;
71383;SDS011;67558;52.166;5.004;2023-05-07T06:18:35;22.13;;;20.05;;
71383;SDS011;67558;52.166;5.004;2023-05-07T06:21:01;20.70;;;18.70;;
71383;SDS011;67558;52.166;5.004;2023-05-07T06:23:27;20.30;;;18.33;;
71383;SDS011;67558;52.166;5.004;2023-05-07T06:25:52;22.33;;;20.42;;
71383;SDS011;67558;52.166;5.004;2023-05-07T06:28:18;22.40;;;20.40;;
71383;SDS011;67558;52.166;5.004;2023-05-07T06:30:43;21.17;;;19.17;;
71383;SDS011;67558;52.166;5.004;2023-05-07T06:33:09;23.48;;;21.27;;
71383;SDS011;67558;52.166;5.004;2023-05-07T06:35:34;20.92;;;18.92;;
71383;SDS011;67558;52.166;5.004;2023-05-07T06:38:00;20.92;;;18.65;;
71383;SDS011;67558;52.166;5.004;2023-05-07T06:40:26;20.95;;;18.95;;
71383;SDS011;67558;52.166;5.004;2023-05-07T06:42:51;21.75;;;19.60;;
71383;SDS011;67558;52.166;5.004;2023-05-07T06:45:16;22.10;;;19.95;;
71383;SDS011;67558;52.166;5.004;2023-05-07T06:47:42;21.23;;;19.23;;
71383;SDS011;67558;52.166;5.004;2023-05-07T06:50:07;20.42;;;18.63;;
71383;SDS011;67558;52.166;5.004;2023-05-07T06:52:34;21.45;;;19.65;;
71383;SDS011;67558;52.166;5.004;2023-05-07T06:55:00;20.70;;;18.63;;
71383;SDS011;67558;52.166;5.004;2023-05-07T06:57:25;24.05;;;21.67;;
71383;SDS011;67558;52.166;5.004;2023-05-07T06:59:51;20.30;;;18.50;;
71383;SDS011;67558;52.166;5.004;2023-05-07T07:02:16;21.63;;;19.52;;
71383;SDS011;67558;52.166;5.004;2023-05-07T07:04:42;22.92;;;20.70;;
71383;SDS011;67558;52.166;5.004;2023-05-07T07:07:07;20.67;;;18.75;;
71383;SDS011;67558;52.166;5.004;2023-05-07T07:09:32;24.23;;;21.95;;
71383;SDS011;67558;52.166;5.004;2023-05-07T07:11:58;22.25;;;20.10;;
71383;SDS011;67558;52.166;5.004;2023-05-07T07:14:23;24.58;;;22.48;;
71383;SDS011;67558;52.166;5.004;2023-05-07T07:16:49;25.27;;;22.80;;
71383;SDS011;67558;52.166;5.004;2023-05-07T07:19:14;24.17;;;21.98;;
71383;SDS011;67558;52.166;5.004;2023-05-07T07:21:40;22.67;;;20.77;;
71383;SDS011;67558;52.166;5.004;2023-05-07T07:24:06;23.92;;;21.50;;
71383;SDS011;67558;52.166;5.004;2023-05-07T07:26:31;22.50;;;20.42;;
71383;SDS011;67558;52.166;5.004;2023-05-07T07:28:57;24.40;;;22.17;;
71383;SDS011;67558;52.166;5.004;2023-05-07T07:31:22;24.48;;;22.13;;
71383;SDS011;67558;52.166;5.004;2023-05-07T07:33:47;21.50;;;19.67;;
71383;SDS011;67558;52.166;5.004;2023-05-07T07:36:15;24.17;;;21.98;;
71383;SDS011;67558;52.166;5.004;2023-05-07T07:38:41;23.48;;;21.17;;
71383;SDS011;67558;52.166;5.004;2023-05-07T07:41:07;23.10;;;21.00;;
71383;SDS011;67558;52.166;5.004;2023-05-07T07:43:33;23.65;;;21.55;;
71383;SDS011;67558;52.166;5.004;2023-05-07T07:45:59;23.15;;;20.98;;
71383;SDS011;67558;52.166;5.004;2023-05-07T07:48:24;23.23;;;21.17;;
71383;SDS011;67558;52.166;5.004;2023-05-07T07:50:50;24.40;;;22.17;;
71383;SDS011;67558;52.166;5.004;2023-05-07T07:53:16;22.77;;;20.90;;
71383;SDS011;67558;52.166;5.004;2023-05-07T07:55:41;20.90;;;18.88;;
71383;SDS011;67558;52.166;5.004;2023-05-07T07:58:07;24.73;;;22.63;;
71383;SDS011;67558;52.166;5.004;2023-05-07T08:00:32;22.70;;;20.60;;
71383;SDS011;67558;52.166;5.004;2023-05-07T08:02:58;23.48;;;21.35;;
71383;SDS011;67558;52.166;5.004;2023-05-07T08:05:24;23.88;;;21.63;;
71383;SDS011;67558;52.166;5.004;2023-05-07T08:07:50;25.83;;;23.73;;
71383;SDS011;67558;52.166;5.004;2023-05-07T08:10:17;24.15;;;22.25;;
71383;SDS011;67558;52.166;5.004;2023-05-07T08:12:49;24.92;;;23.10;;
71383;SDS011;67558;52.166;5.004;2023-05-07T08:15:15;23.58;;;21.35;;
71383;SDS011;67558;52.166;5.004;2023-05-07T08:17:42;24.33;;;21.98;;
71383;SDS011;67558;52.166;5.004;2023-05-07T08:20:08;24.98;;;23.20;;
71383;SDS011;67558;52.166;5.004;2023-05-07T08:22:34;23.10;;;21.02;;
71383;SDS011;67558;52.166;5.004;2023-05-07T08:25:01;25.05;;;23.15;;
71383;SDS011;67558;52.166;5.004;2023-05-07T08:27:27;23.38;;;21.45;;
71383;SDS011;67558;52.166;5.004;2023-05-07T08:29:53;25.85;;;23.77;;
71383;SDS011;67558;52.166;5.004;2023-05-07T08:32:19;24.45;;;22.65;;
71383;SDS011;67558;52.166;5.004;2023-05-07T08:34:45;22.63;;;20.83;;
71383;SDS011;67558;52.166;5.004;2023-05-07T08:37:11;23.67;;;21.98;;
71383;SDS011;67558;52.166;5.004;2023-05-07T08:39:36;23.60;;;21.95;;
71383;SDS011;67558;52.166;5.004;2023-05-07T08:42:03;22.83;;;21.02;;
71383;SDS011;67558;52.166;5.004;2023-05-07T08:44:35;21.77;;;20.17;;
71383;SDS011;67558;52.166;5.004;2023-05-07T08:47:04;23.05;;;21.45;;
71383;SDS011;67558;52.166;5.004;2023-05-07T08:49:31;23.67;;;21.98;;
71383;SDS011;67558;52.166;5.004;2023-05-07T08:51:58;22.83;;;21.15;;
71383;SDS011;67558;52.166;5.004;2023-05-07T08:54:24;21.20;;;19.70;;
71383;SDS011;67558;52.166;5.004;2023-05-07T08:56:51;22.85;;;21.35;;
71383;SDS011;67558;52.166;5.004;2023-05-07T08:59:16;23.73;;;21.95;;
71383;SDS011;67558;52.166;5.004;2023-05-07T09:01:42;21.15;;;19.63;;
71383;SDS011;67558;52.166;5.004;2023-05-07T09:04:07;23.83;;;22.33;;
71383;SDS011;67558;52.166;5.004;2023-05-07T09:06:34;22.02;;;20.65;;
71383;SDS011;67558;52.166;5.004;2023-05-07T09:09:00;21.80;;;20.30;;
71383;SDS011;67558;52.166;5.004;2023-05-07T09:11:26;21.98;;;20.50;;
71383;SDS011;67558;52.166;5.004;2023-05-07T09:13:55;21.95;;;20.52;;
71383;SDS011;67558;52.166;5.004;2023-05-07T09:16:21;23.88;;;22.35;;
71383;SDS011;67558;52.166;5.004;2023-05-07T09:18:48;23.15;;;21.60;;
71383;SDS011;67558;52.166;5.004;2023-05-07T09:21:17;23.38;;;21.92;;
71383;SDS011;67558;52.166;5.004;2023-05-07T09:23:43;21.55;;;19.95;;
71383;SDS011;67558;52.166;5.004;2023-05-07T09:26:08;20.65;;;19.52;;
71383;SDS011;67558;52.166;5.004;2023-05-07T09:28:42;27.23;;;25.50;;
71383;SDS011;67558;52.166;5.004;2023-05-07T09:31:10;23.92;;;22.30;;
71383;SDS011;67558;52.166;5.004;2023-05-07T09:33:37;25.63;;;24.02;;
71383;SDS011;67558;52.166;5.004;2023-05-07T09:36:04;26.90;;;25.42;;
71383;SDS011;67558;52.166;5.004;2023-05-07T09:38:34;22.42;;;21.05;;
71383;SDS011;67558;52.166;5.004;2023-05-07T09:43:53;26.45;;;24.92;;
71383;SDS011;67558;52.166;5.004;2023-05-07T09:46:20;22.38;;;21.17;;
71383;SDS011;67558;52.166;5.004;2023-05-07T09:48:53;21.27;;;20.05;;
71383;SDS011;67558;52.166;5.004;2023-05-07T09:53:54;21.00;;;19.80;;
71383;SDS011;67558;52.166;5.004;2023-05-07T09:56:21;27.40;;;25.88;;
71383;SDS011;67558;52.166;5.004;2023-05-07T09:58:47;22.10;;;20.70;;
71383;SDS011;67558;52.166;5.004;2023-05-07T10:01:15;23.95;;;22.35;;
71383;SDS011;67558;52.166;5.004;2023-05-07T10:03:42;23.40;;;22.23;;
71383;SDS011;67558;52.166;5.004;2023-05-07T10:06:09;23.33;;;22.00;;
71383;SDS011;67558;52.166;5.004;2023-05-07T10:08:35;24.27;;;23.02;;
71383;SDS011;67558;52.166;5.004;2023-05-07T10:11:02;25.50;;;24.20;;
71383;SDS011;67558;52.166;5.004;2023-05-07T10:13:29;23.77;;;22.38;;
71383;SDS011;67558;52.166;5.004;2023-05-07T10:15:55;23.02;;;21.73;;
71383;SDS011;67558;52.166;5.004;2023-05-07T10:18:21;25.75;;;24.20;;
71383;SDS011;67558;52.166;5.004;2023-05-07T10:20:49;24.02;;;22.50;;
71383;SDS011;67558;52.166;5.004;2023-05-07T10:23:20;24.83;;;23.38;;
71383;SDS011;67558;52.166;5.004;2023-05-07T10:25:49;25.15;;;23.42;;
71383;SDS011;67558;52.166;5.004;2023-05-07T10:28:14;24.83;;;23.45;;
71383;SDS011;67558;52.166;5.004;2023-05-07T10:33:26;26.13;;;24.92;;
71383;SDS011;67558;52.166;5.004;2023-05-07T10:36:00;26.50;;;25.05;;
71383;SDS011;67558;52.166;5.004;2023-05-07T10:38:28;24.13;;;22.83;;
71383;SDS011;67558;52.166;5.004;2023-05-07T10:40:53;26.38;;;25.08;;
71383;SDS011;67558;52.166;5.004;2023-05-07T10:43:19;24.23;;;22.92;;
71383;SDS011;67558;52.166;5.004;2023-05-07T10:45:53;25.80;;;24.27;;
71383;SDS011;67558;52.166;5.004;2023-05-07T10:49:24;25.10;;;23.65;;
71383;SDS011;67558;52.166;5.004;2023-05-07T10:51:28;21.90;;;20.60;;
71383;SDS011;67558;52.166;5.004;2023-05-07T10:54:41;24.48;;;22.88;;
71383;SDS011;67558;52.166;5.004;2023-05-07T10:56:44;25.77;;;24.40;;
71383;SDS011;67558;52.166;5.004;2023-05-07T11:04:19;25.92;;;24.63;;
71383;SDS011;67558;52.166;5.004;2023-05-07T11:12:19;23.60;;;22.35;;
71383;SDS011;67558;52.166;5.004;2023-05-07T11:15:09;23.08;;;22.17;;
71383;SDS011;67558;52.166;5.004;2023-05-07T11:17:55;31.23;;;30.13;;
71383;SDS011;67558;52.166;5.004;2023-05-07T11:26:00;23.27;;;22.25;;
71383;SDS011;67558;52.166;5.004;2023-05-07T11:28:29;19.63;;;18.83;;
71383;SDS011;67558;52.166;5.004;2023-05-07T11:30:55;22.33;;;21.33;;
71383;SDS011;67558;52.166;5.004;2023-05-07T11:33:22;23.25;;;22.25;;
71383;SDS011;67558;52.166;5.004;2023-05-07T11:35:48;20.85;;;20.05;;
71383;SDS011;67558;52.166;5.004;2023-05-07T11:38:13;23.98;;;23.15;;
71383;SDS011;67558;52.166;5.004;2023-05-07T11:40:48;22.52;;;21.73;;
71383;SDS011;67558;52.166;5.004;2023-05-07T11:43:18;23.10;;;22.02;;
71383;SDS011;67558;52.166;5.004;2023-05-07T11:45:45;24.17;;;22.95;;
71383;SDS011;67558;52.166;5.004;2023-05-07T11:48:15;23.02;;;22.15;;
71383;SDS011;67558;52.166;5.004;2023-05-07T11:50:51;23.77;;;22.88;;
71383;SDS011;67558;52.166;5.004;2023-05-07T11:53:20;22.95;;;21.80;;
71383;SDS011;67558;52.166;5.004;2023-05-07T11:55:51;23.98;;;23.10;;
71383;SDS011;67558;52.166;5.004;2023-05-07T11:58:20;23.10;;;21.75;;
71383;SDS011;67558;52.166;5.004;2023-05-07T12:00:49;25.85;;;24.65;;
71383;SDS011;67558;52.166;5.004;2023-05-07T12:03:15;24.13;;;22.98;;
71383;SDS011;67558;52.166;5.004;2023-05-07T12:05:42;40.38;;;38.78;;
71383;SDS011;67558;52.166;5.004;2023-05-07T12:08:08;21.92;;;21.00;;
71383;SDS011;67558;52.166;5.004;2023-05-07T12:10:40;24.73;;;23.58;;
71383;SDS011;67558;52.166;5.004;2023-05-07T12:13:19;23.55;;;22.55;;
71383;SDS011;67558;52.166;5.004;2023-05-07T12:15:55;26.45;;;25.17;;
71383;SDS011;67558;52.166;5.004;2023-05-07T12:18:22;24.02;;;23.17;;
71383;SDS011;67558;52.166;5.004;2023-05-07T12:20:48;25.80;;;24.52;;
71383;SDS011;67558;52.166;5.004;2023-05-07T12:23:15;24.90;;;23.73;;
71383;SDS011;67558;52.166;5.004;2023-05-07T12:25:41;25.63;;;24.42;;
71383;SDS011;67558;52.166;5.004;2023-05-07T12:30:41;26.55;;;25.35;;
71383;SDS011;67558;52.166;5.004;2023-05-07T12:33:08;28.23;;;27.13;;
71383;SDS011;67558;52.166;5.004;2023-05-07T12:35:38;26.23;;;25.15;;
71383;SDS011;67558;52.166;5.004;2023-05-07T12:38:15;27.15;;;26.08;;
71383;SDS011;67558;52.166;5.004;2023-05-07T12:40:43;28.67;;;27.35;;
71383;SDS011;67558;52.166;5.004;2023-05-07T12:43:21;26.13;;;24.98;;
71383;SDS011;67558;52.166;5.004;2023-05-07T12:45:50;26.42;;;25.13;;
71383;SDS011;67558;52.166;5.004;2023-05-07T12:48:19;26.27;;;25.17;;
71383;SDS011;67558;52.166;5.004;2023-05-07T12:50:46;29.15;;;28.10;;
71383;SDS011;67558;52.166;5.004;2023-05-07T12:53:14;39.90;;;38.60;;
71383;SDS011;67558;52.166;5.004;2023-05-07T12:55:44;25.60;;;24.38;;
71383;SDS011;67558;52.166;5.004;2023-05-07T12:58:21;26.95;;;25.80;;
71383;SDS011;67558;52.166;5.004;2023-05-07T13:00:50;26.80;;;25.70;;
71383;SDS011;67558;52.166;5.004;2023-05-07T13:03:30;27.73;;;26.52;;
71383;SDS011;67558;52.166;5.004;2023-05-07T13:05:57;26.27;;;24.92;;
71383;SDS011;67558;52.166;5.004;2023-05-07T13:08:28;25.20;;;23.95;;
71383;SDS011;67558;52.166;5.004;2023-05-07T13:10:54;30.67;;;29.58;;
71383;SDS011;67558;52.166;5.004;2023-05-07T13:13:20;28.92;;;27.80;;
71383;SDS011;67558;52.166;5.004;2023-05-07T13:15:46;23.05;;;22.15;;
71383;SDS011;67558;52.166;5.004;2023-05-07T13:18:12;38.15;;;36.80;;
71383;SDS011;67558;52.166;5.004;2023-05-07T13:20:38;24.65;;;23.65;;
71383;SDS011;67558;52.166;5.004;2023-05-07T13:23:03;25.90;;;24.90;;
71383;SDS011;67558;52.166;5.004;2023-05-07T13:25:29;27.35;;;26.25;;
71383;SDS011;67558;52.166;5.004;2023-05-07T13:27:56;29.70;;;28.65;;
71383;SDS011;67558;52.166;5.004;2023-05-07T13:30:22;29.20;;;28.10;;
71383;SDS011;67558;52.166;5.004;2023-05-07T13:32:47;26.65;;;25.52;;
71383;SDS011;67558;52.166;5.004;2023-05-07T13:35:13;30.90;;;29.60;;
71383;SDS011;67558;52.166;5.004;2023-05-07T13:37:38;26.80;;;25.38;;
71383;SDS011;67558;52.166;5.004;2023-05-07T13:40:04;30.40;;;29.15;;
71383;SDS011;67558;52.166;5.004;2023-05-07T13:42:30;30.52;;;28.95;;
71383;SDS011;67558;52.166;5.004;2023-05-07T13:44:56;26.95;;;25.55;;
71383;SDS011;67558;52.166;5.004;2023-05-07T13:47:22;31.73;;;30.42;;
71383;SDS011;67558;52.166;5.004;2023-05-07T13:49:47;30.38;;;28.85;;
71383;SDS011;67558;52.166;5.004;2023-05-07T13:52:16;28.77;;;27.38;;
71383;SDS011;67558;52.166;5.004;2023-05-07T13:54:42;25.90;;;24.60;;
71383;SDS011;67558;52.166;5.004;2023-05-07T13:57:07;27.05;;;25.67;;
71383;SDS011;67558;52.166;5.004;2023-05-07T13:59:33;28.55;;;27.35;;
71383;SDS011;67558;52.166;5.004;2023-05-07T14:01:58;33.15;;;31.85;;
71383;SDS011;67558;52.166;5.004;2023-05-07T14:04:24;28.63;;;27.55;;
71383;SDS011;67558;52.166;5.004;2023-05-07T14:06:50;24.88;;;23.70;;
71383;SDS011;67558;52.166;5.004;2023-05-07T14:09:15;27.20;;;26.08;;
71383;SDS011;67558;52.166;5.004;2023-05-07T14:11:41;25.85;;;24.70;;
71383;SDS011;67558;52.166;5.004;2023-05-07T14:14:06;25.00;;;23.83;;
71383;SDS011;67558;52.166;5.004;2023-05-07T14:16:32;26.42;;;24.95;;
71383;SDS011;67558;52.166;5.004;2023-05-07T14:18:57;24.58;;;23.65;;
71383;SDS011;67558;52.166;5.004;2023-05-07T14:21:23;24.50;;;23.35;;
71383;SDS011;67558;52.166;5.004;2023-05-07T14:23:48;25.20;;;24.08;;
71383;SDS011;67558;52.166;5.004;2023-05-07T14:26:13;25.63;;;24.63;;
71383;SDS011;67558;52.166;5.004;2023-05-07T14:28:39;23.98;;;23.08;;
71383;SDS011;67558;52.166;5.004;2023-05-07T14:31:06;27.05;;;25.75;;
71383;SDS011;67558;52.166;5.004;2023-05-07T14:33:31;26.05;;;24.77;;
71383;SDS011;67558;52.166;5.004;2023-05-07T14:35:57;27.38;;;25.75;;
71383;SDS011;67558;52.166;5.004;2023-05-07T14:38:22;26.55;;;25.10;;
71383;SDS011;67558;52.166;5.004;2023-05-07T14:40:48;27.95;;;26.35;;
71383;SDS011;67558;52.166;5.004;2023-05-07T14:43:13;28.88;;;27.27;;
71383;SDS011;67558;52.166;5.004;2023-05-07T14:45:38;26.73;;;24.75;;